createdAt,value
2022-08-05T00:04:46.818Z,54.12
2022-08-05T00:14:59.934Z,54.93
2022-08-05T00:25:22.019Z,56.47
2022-08-05T00:35:33.379Z,57.81
2022-08-05T00:45:38.636Z,59.16
2022-08-05T00:55:44.320Z,60.18
2022-08-05T01:05:48.738Z,61.04
2022-08-05T01:15:59.696Z,61.21
2022-08-05T01:26:30.234Z,61.22
2022-08-05T01:36:35.961Z,62.49
2022-08-05T01:46:46.735Z,63.40
2022-08-05T01:58:12.659Z,64.23
2022-08-05T02:07:21.861Z,65.09
2022-08-05T02:18:28.062Z,65.40
2022-08-05T02:27:59.289Z,66.33
2022-08-05T02:38:09.748Z,66.99
2022-08-05T02:48:17.633Z,67.57
2022-08-05T02:58:22.487Z,68.18
2022-08-05T03:08:33.883Z,68.51
2022-08-05T03:18:35.868Z,68.94
2022-08-05T03:28:44.164Z,68.54
2022-08-05T03:38:53.453Z,67.01
2022-08-05T03:48:57.869Z,65.21
2022-08-05T03:59:08.967Z,63.30
2022-08-05T04:09:11.783Z,61.17
2022-08-05T04:19:16.763Z,59.96
2022-08-05T04:29:29.199Z,58.89
2022-08-05T04:39:32.431Z,57.59
2022-08-05T04:50:01.474Z,56.03
2022-08-05T05:00:03.856Z,55.93
2022-08-05T05:10:08.061Z,54.89
2022-08-05T05:20:13.658Z,53.90
2022-08-05T05:30:31.009Z,52.88
2022-08-05T05:40:38.826Z,50.51
2022-08-05T05:50:48.469Z,49.16
2022-08-05T06:00:50.600Z,49.03
2022-08-05T06:10:53.017Z,49.47
2022-08-05T06:20:55.076Z,48.17
2022-08-05T06:31:01.575Z,46.32
2022-08-05T06:41:14.076Z,46.47
2022-08-05T06:51:23.981Z,46.58
2022-08-05T07:01:33.110Z,46.55
2022-08-05T07:11:37.192Z,45.64
2022-08-05T07:22:00.323Z,45.96
2022-08-05T07:32:06.484Z,44.98
2022-08-05T07:42:14.949Z,44.26
2022-08-05T07:52:23.933Z,43.61
2022-08-05T08:03:15.167Z,42.27
2022-08-05T08:12:59.863Z,42.39
2022-08-05T08:23:59.863Z,41.70
2022-08-05T08:33:36.132Z,41.25
2022-08-05T08:45:25.240Z,41.04
2022-08-05T08:54:20.207Z,40.69
2022-08-05T09:04:30.327Z,40.60
2022-08-05T09:14:57.764Z,39.39
2022-08-05T09:25:14.019Z,38.65
2022-08-05T09:35:27.646Z,39.58
2022-08-05T09:46:06.697Z,39.92
2022-08-05T09:56:13.077Z,39.33
2022-08-05T10:06:20.680Z,39.07
2022-08-05T10:16:37.903Z,38.81
2022-08-05T10:27:08.208Z,39.12
2022-08-05T10:37:15.994Z,39.62
2022-08-05T10:47:27.126Z,39.17
2022-08-05T10:57:36.068Z,38.97
2022-08-05T11:08:17.083Z,38.73
2022-08-05T11:18:34.565Z,39.52
2022-08-05T11:28:38.171Z,38.97
2022-08-05T11:38:45.410Z,39.38
2022-08-05T11:48:59.596Z,39.05
2022-08-05T11:59:13.769Z,38.33
2022-08-05T12:09:20.849Z,38.59
2022-08-05T12:20:26.825Z,38.07
2022-08-05T12:30:22.604Z,37.76
2022-08-05T12:40:36.185Z,38.38
2022-08-05T12:50:38.976Z,38.69
2022-08-05T13:02:01.517Z,38.58
2022-08-05T13:11:17.656Z,37.93
2022-08-05T13:21:52.311Z,36.84
2022-08-05T13:32:05.109Z,36.92
2022-08-05T13:42:14.511Z,37.26
2022-08-05T13:52:19.778Z,36.52
2022-08-05T14:02:34.800Z,36.52
2022-08-05T14:12:48.918Z,36.35
2022-08-05T14:22:51.183Z,36.09
2022-08-05T14:33:00.107Z,36.27
2022-08-05T14:43:11.122Z,36.00
2022-08-05T14:53:14.514Z,36.36
2022-08-05T15:03:19.355Z,36.34
2022-08-05T15:13:46.228Z,36.42
2022-08-05T15:23:49.058Z,36.86
2022-08-05T15:34:18.419Z,37.22
2022-08-05T15:44:25.558Z,36.82
2022-08-05T15:54:35.191Z,36.97
2022-08-05T16:04:39.959Z,37.22
2022-08-05T16:14:48.830Z,37.47
2022-08-05T16:24:53.427Z,37.39
2022-08-05T16:35:00.311Z,37.39
2022-08-05T16:45:02.398Z,36.90
2022-08-05T16:55:24.543Z,37.00
2022-08-05T17:05:27.451Z,36.81
2022-08-05T17:15:49.681Z,36.86
2022-08-05T17:25:59.521Z,37.03
2022-08-05T17:36:07.876Z,37.07
2022-08-05T17:46:14.499Z,36.99
2022-08-05T17:56:19.581Z,37.28
2022-08-05T18:06:29.296Z,37.73
2022-08-05T18:16:46.838Z,37.65
2022-08-05T18:26:55.314Z,38.06
2022-08-05T18:37:06.043Z,38.02
2022-08-05T18:47:17.175Z,38.46
2022-08-05T18:57:24.011Z,38.79
2022-08-05T19:07:45.080Z,39.12
2022-08-05T19:18:08.068Z,40.02
2022-08-05T19:28:13.049Z,40.78
2022-08-05T19:38:20.321Z,41.62
2022-08-05T19:48:30.955Z,42.25
2022-08-05T19:58:53.362Z,42.16
2022-08-05T20:09:00.895Z,42.46
2022-08-05T20:19:21.262Z,43.13
2022-08-05T20:29:33.352Z,44.17
2022-08-05T20:39:36.738Z,45.20
2022-08-05T20:49:42.765Z,46.32
2022-08-05T21:00:19.707Z,47.64
2022-08-05T21:10:15.395Z,49.08
2022-08-05T21:20:33.290Z,49.85
2022-08-05T21:30:38.340Z,50.64
2022-08-05T21:40:43.250Z,51.49
2022-08-05T21:50:53.178Z,52.47
2022-08-05T22:01:01.844Z,53.49
2022-08-05T22:11:09.203Z,54.11
2022-08-05T22:21:18.867Z,54.59
2022-08-05T22:31:22.953Z,54.75
2022-08-05T22:42:11.314Z,55.18
2022-08-05T22:52:05.693Z,55.89
2022-08-05T23:02:16.459Z,56.88
2022-08-05T23:12:24.744Z,57.73
2022-08-05T23:22:28.827Z,59.31
2022-08-05T23:32:33.440Z,60.05
2022-08-05T23:42:40.076Z,60.05
2022-08-05T23:52:54.710Z,60.91
